sensor_id;sensor_type;location;lat;lon;timestamp;pressure;altitude;pressure_sealevel;temperature;humidity
81162;BME280;70638;-33.792;151.032;2024-01-07T00:01:26;101168.09;;;30.55;44.41
81162;BME280;70638;-33.792;151.032;2024-01-07T00:03:54;101164.02;;;31.48;41.87
81162;BME280;70638;-33.792;151.032;2024-01-07T00:06:25;101165.23;;;32.25;40.43
81162;BME280;70638;-33.792;151.032;2024-01-07T00:08:55;101158.90;;;32.53;39.36
81162;BME280;70638;-33.792;151.032;2024-01-07T00:11:36;101162.12;;;32.35;38.60
81162;BME280;70638;-33.792;151.032;2024-01-07T00:13:56;101161.60;;;32.50;38.89
81162;BME280;70638;-33.792;151.032;2024-01-07T00:16:27;101163.09;;;32.81;39.86
81162;BME280;70638;-33.792;151.032;2024-01-07T00:18:57;101163.52;;;32.04;40.09
81162;BME280;70638;-33.792;151.032;2024-01-07T00:21:28;101162.83;;;31.42;41.80
81162;BME280;70638;-33.792;151.032;2024-01-07T00:23:58;101154.87;;;33.89;36.94
81162;BME280;70638;-33.792;151.032;2024-01-07T00:26:29;101149.44;;;35.80;33.67
81162;BME280;70638;-33.792;151.032;2024-01-07T00:29:00;101153.86;;;35.69;33.80
81162;BME280;70638;-33.792;151.032;2024-01-07T00:31:30;101150.58;;;36.43;31.75
81162;BME280;70638;-33.792;151.032;2024-01-07T00:34:01;101148.86;;;36.60;31.51
81162;BME280;70638;-33.792;151.032;2024-01-07T00:36:32;101149.84;;;36.45;31.96
81162;BME280;70638;-33.792;151.032;2024-01-07T00:39:03;101139.53;;;34.74;33.87
81162;BME280;70638;-33.792;151.032;2024-01-07T00:41:39;101136.42;;;34.96;34.95
81162;BME280;70638;-33.792;151.032;2024-01-07T00:44:04;101145.55;;;32.90;37.27
81162;BME280;70638;-33.792;151.032;2024-01-07T00:46:34;101138.05;;;31.18;40.46
81162;BME280;70638;-33.792;151.032;2024-01-07T00:49:05;101124.15;;;32.00;41.84
81162;BME280;70638;-33.792;151.032;2024-01-07T00:51:35;101120.12;;;31.20;40.40
81162;BME280;70638;-33.792;151.032;2024-01-07T00:54:06;101116.09;;;31.03;42.16
81162;BME280;70638;-33.792;151.032;2024-01-07T00:56:36;101116.53;;;31.64;41.71
81162;BME280;70638;-33.792;151.032;2024-01-07T00:59:07;101114.12;;;31.84;40.12
81162;BME280;70638;-33.792;151.032;2024-01-07T01:01:40;101104.98;;;31.81;40.15
81162;BME280;70638;-33.792;151.032;2024-01-07T01:04:08;101100.29;;;30.68;41.71
81162;BME280;70638;-33.792;151.032;2024-01-07T01:06:39;101097.47;;;30.99;42.75
81162;BME280;70638;-33.792;151.032;2024-01-07T01:09:16;101093.30;;;30.94;42.37
81162;BME280;70638;-33.792;151.032;2024-01-07T01:11:40;101089.20;;;30.85;42.65
81162;BME280;70638;-33.792;151.032;2024-01-07T01:14:20;101085.80;;;30.95;42.82
81162;BME280;70638;-33.792;151.032;2024-01-07T01:16:42;101080.78;;;30.38;44.30
81162;BME280;70638;-33.792;151.032;2024-01-07T01:19:12;101078.95;;;31.01;43.43
81162;BME280;70638;-33.792;151.032;2024-01-07T01:21:42;101073.67;;;31.15;43.40
81162;BME280;70638;-33.792;151.032;2024-01-07T01:24:13;101066.45;;;30.54;44.12
81162;BME280;70638;-33.792;151.032;2024-01-07T01:26:44;101071.19;;;29.86;47.08
81162;BME280;70638;-33.792;151.032;2024-01-07T01:29:14;101070.49;;;29.54;47.63
81162;BME280;70638;-33.792;151.032;2024-01-07T01:31:44;101074.10;;;29.33;49.01
81162;BME280;70638;-33.792;151.032;2024-01-07T01:34:15;101065.12;;;29.49;46.68
81162;BME280;70638;-33.792;151.032;2024-01-07T01:36:47;101054.13;;;29.87;47.11
81162;BME280;70638;-33.792;151.032;2024-01-07T01:39:21;101044.66;;;30.10;46.21
81162;BME280;70638;-33.792;151.032;2024-01-07T01:41:51;101038.75;;;30.51;47.51
81162;BME280;70638;-33.792;151.032;2024-01-07T01:44:17;101032.33;;;30.33;47.04
81162;BME280;70638;-33.792;151.032;2024-01-07T01:46:48;101039.67;;;29.81;47.48
81162;BME280;70638;-33.792;151.032;2024-01-07T01:49:17;101040.18;;;29.84;48.76
81162;BME280;70638;-33.792;151.032;2024-01-07T01:51:49;101032.00;;;29.78;48.17
81162;BME280;70638;-33.792;151.032;2024-01-07T01:54:20;101020.64;;;29.64;50.35
81162;BME280;70638;-33.792;151.032;2024-01-07T01:56:50;101022.80;;;29.30;50.19
81162;BME280;70638;-33.792;151.032;2024-01-07T01:59:21;101022.17;;;28.90;50.78
81162;BME280;70638;-33.792;151.032;2024-01-07T02:01:51;101009.34;;;28.79;50.79
81162;BME280;70638;-33.792;151.032;2024-01-07T02:04:34;101009.88;;;29.25;51.26
81162;BME280;70638;-33.792;151.032;2024-01-07T02:06:56;100999.25;;;29.14;51.46
81162;BME280;70638;-33.792;151.032;2024-01-07T02:09:24;101000.70;;;29.62;49.05
81162;BME280;70638;-33.792;151.032;2024-01-07T02:12:05;101007.95;;;29.20;49.96
81162;BME280;70638;-33.792;151.032;2024-01-07T02:14:29;100993.92;;;29.09;49.62
81162;BME280;70638;-33.792;151.032;2024-01-07T02:16:53;100989.88;;;29.41;50.78
81162;BME280;70638;-33.792;151.032;2024-01-07T02:19:24;100982.69;;;29.58;50.74
81162;BME280;70638;-33.792;151.032;2024-01-07T02:21:55;100974.62;;;29.86;49.74
81162;BME280;70638;-33.792;151.032;2024-01-07T02:24:26;100972.02;;;29.78;50.03
81162;BME280;70638;-33.792;151.032;2024-01-07T02:26:57;100982.41;;;29.64;49.80
81162;BME280;70638;-33.792;151.032;2024-01-07T02:29:28;100969.73;;;29.24;49.75
81162;BME280;70638;-33.792;151.032;2024-01-07T02:31:58;100967.55;;;29.25;50.63
81162;BME280;70638;-33.792;151.032;2024-01-07T02:34:28;100974.12;;;29.49;50.46
81162;BME280;70638;-33.792;151.032;2024-01-07T02:36:59;100968.67;;;28.80;51.63
81162;BME280;70638;-33.792;151.032;2024-01-07T02:39:30;100966.05;;;29.42;51.44
81162;BME280;70638;-33.792;151.032;2024-01-07T02:42:01;100968.08;;;29.79;50.02
81162;BME280;70638;-33.792;151.032;2024-01-07T02:44:32;100967.06;;;29.88;50.33
81162;BME280;70638;-33.792;151.032;2024-01-07T02:47:02;100962.16;;;29.48;50.31
81162;BME280;70638;-33.792;151.032;2024-01-07T02:49:44;100947.98;;;29.72;50.40
81162;BME280;70638;-33.792;151.032;2024-01-07T02:52:07;100954.95;;;29.34;49.63
81162;BME280;70638;-33.792;151.032;2024-01-07T02:54:35;100945.25;;;29.15;51.29
81162;BME280;70638;-33.792;151.032;2024-01-07T02:57:08;100948.52;;;29.36;51.32
81162;BME280;70638;-33.792;151.032;2024-01-07T02:59:39;100944.19;;;29.35;50.76
81162;BME280;70638;-33.792;151.032;2024-01-07T03:02:07;100941.61;;;29.26;51.57
81162;BME280;70638;-33.792;151.032;2024-01-07T03:04:37;100945.90;;;28.66;52.14
81162;BME280;70638;-33.792;151.032;2024-01-07T03:07:15;100947.27;;;28.21;53.24
81162;BME280;70638;-33.792;151.032;2024-01-07T03:09:42;100944.03;;;28.19;54.88
81162;BME280;70638;-33.792;151.032;2024-01-07T03:12:10;100935.16;;;28.07;54.75
81162;BME280;70638;-33.792;151.032;2024-01-07T03:14:41;100931.06;;;28.27;55.12
81162;BME280;70638;-33.792;151.032;2024-01-07T03:17:12;100930.16;;;28.11;55.17
81162;BME280;70638;-33.792;151.032;2024-01-07T03:19:42;100914.83;;;28.18;55.54
81162;BME280;70638;-33.792;151.032;2024-01-07T03:22:10;100913.34;;;28.38;53.85
81162;BME280;70638;-33.792;151.032;2024-01-07T03:24:42;100913.02;;;28.61;53.88
81162;BME280;70638;-33.792;151.032;2024-01-07T03:27:11;100920.37;;;28.42;54.73
81162;BME280;70638;-33.792;151.032;2024-01-07T03:29:42;100908.47;;;28.43;54.35
81162;BME280;70638;-33.792;151.032;2024-01-07T03:32:13;100901.29;;;28.53;53.38
81162;BME280;70638;-33.792;151.032;2024-01-07T03:34:51;100888.75;;;28.76;53.80
81162;BME280;70638;-33.792;151.032;2024-01-07T03:37:14;100886.44;;;28.56;53.40
81162;BME280;70638;-33.792;151.032;2024-01-07T03:39:45;100881.62;;;28.82;54.20
81162;BME280;70638;-33.792;151.032;2024-01-07T03:42:16;100870.72;;;28.93;54.13
81162;BME280;70638;-33.792;151.032;2024-01-07T03:44:47;100866.81;;;29.00;52.52
81162;BME280;70638;-33.792;151.032;2024-01-07T03:47:18;100870.36;;;29.04;53.08
81162;BME280;70638;-33.792;151.032;2024-01-07T03:49:48;100873.46;;;28.77;52.31
81162;BME280;70638;-33.792;151.032;2024-01-07T03:52:19;100870.95;;;28.75;53.68
81162;BME280;70638;-33.792;151.032;2024-01-07T03:54:50;100865.86;;;28.79;54.39
81162;BME280;70638;-33.792;151.032;2024-01-07T03:57:33;100870.30;;;28.64;54.18
81162;BME280;70638;-33.792;151.032;2024-01-07T03:59:59;100866.75;;;28.89;53.56
81162;BME280;70638;-33.792;151.032;2024-01-07T04:02:21;100865.28;;;28.69;53.08
81162;BME280;70638;-33.792;151.032;2024-01-07T04:04:52;100862.61;;;29.13;52.17
81162;BME280;70638;-33.792;151.032;2024-01-07T04:07:22;100858.95;;;28.96;52.39
81162;BME280;70638;-33.792;151.032;2024-01-07T04:09:53;100858.30;;;28.88;52.50
81162;BME280;70638;-33.792;151.032;2024-01-07T04:12:23;100854.63;;;29.28;52.48
81162;BME280;70638;-33.792;151.032;2024-01-07T04:14:54;100849.95;;;29.01;51.70
81162;BME280;70638;-33.792;151.032;2024-01-07T04:17:25;100850.25;;;28.99;52.10
81162;BME280;70638;-33.792;151.032;2024-01-07T04:19:56;100843.45;;;29.05;53.03
81162;BME280;70638;-33.792;151.032;2024-01-07T04:22:27;100843.70;;;29.06;53.46
81162;BME280;70638;-33.792;151.032;2024-01-07T04:24:57;100835.95;;;29.08;52.05
81162;BME280;70638;-33.792;151.032;2024-01-07T04:27:31;100831.38;;;29.00;53.42
81162;BME280;70638;-33.792;151.032;2024-01-07T04:29:58;100821.22;;;28.59;52.65
81162;BME280;70638;-33.792;151.032;2024-01-07T04:32:29;100821.81;;;29.12;53.52
81162;BME280;70638;-33.792;151.032;2024-01-07T04:35:00;100818.39;;;29.08;52.46
81162;BME280;70638;-33.792;151.032;2024-01-07T04:37:30;100819.88;;;29.13;52.02
81162;BME280;70638;-33.792;151.032;2024-01-07T04:40:01;100806.72;;;29.17;53.40
81162;BME280;70638;-33.792;151.032;2024-01-07T04:42:35;100806.43;;;29.12;51.62
81162;BME280;70638;-33.792;151.032;2024-01-07T04:45:03;100802.97;;;29.14;52.04
81162;BME280;70638;-33.792;151.032;2024-01-07T04:47:34;100794.05;;;29.30;51.90
81162;BME280;70638;-33.792;151.032;2024-01-07T04:50:04;100788.80;;;29.51;50.84
81162;BME280;70638;-33.792;151.032;2024-01-07T04:52:34;100785.59;;;29.41;50.21
81162;BME280;70638;-33.792;151.032;2024-01-07T04:55:05;100779.97;;;29.34;51.77
81162;BME280;70638;-33.792;151.032;2024-01-07T04:57:35;100778.05;;;29.10;51.02
81162;BME280;70638;-33.792;151.032;2024-01-07T05:00:06;100780.38;;;29.12;51.35
81162;BME280;70638;-33.792;151.032;2024-01-07T05:02:36;100767.28;;;28.83;51.91
81162;BME280;70638;-33.792;151.032;2024-01-07T05:05:08;100766.82;;;28.95;51.85
81162;BME280;70638;-33.792;151.032;2024-01-07T05:07:38;100760.56;;;29.07;51.86
81162;BME280;70638;-33.792;151.032;2024-01-07T05:12:53;100753.04;;;29.51;52.21
81162;BME280;70638;-33.792;151.032;2024-01-07T05:15:12;100748.55;;;29.62;52.09
81162;BME280;70638;-33.792;151.032;2024-01-07T05:17:43;100745.28;;;29.63;51.47
81162;BME280;70638;-33.792;151.032;2024-01-07T05:20:15;100748.66;;;29.27;51.50
81162;BME280;70638;-33.792;151.032;2024-01-07T05:22:41;100748.12;;;29.19;51.55
81162;BME280;70638;-33.792;151.032;2024-01-07T05:25:12;100738.41;;;28.80;52.83
81162;BME280;70638;-33.792;151.032;2024-01-07T05:27:43;100725.83;;;28.96;53.72
81162;BME280;70638;-33.792;151.032;2024-01-07T05:30:14;100731.31;;;28.72;53.62
81162;BME280;70638;-33.792;151.032;2024-01-07T05:32:49;100725.73;;;28.47;53.01
81162;BME280;70638;-33.792;151.032;2024-01-07T05:35:18;100721.88;;;28.26;54.06
81162;BME280;70638;-33.792;151.032;2024-01-07T05:37:47;100712.09;;;28.33;55.40
81162;BME280;70638;-33.792;151.032;2024-01-07T05:40:15;100723.59;;;28.62;54.86
81162;BME280;70638;-33.792;151.032;2024-01-07T05:42:46;100713.77;;;28.56;53.21
81162;BME280;70638;-33.792;151.032;2024-01-07T05:45:16;100709.50;;;28.48;54.05
81162;BME280;70638;-33.792;151.032;2024-01-07T05:47:47;100716.83;;;28.16;53.83
81162;BME280;70638;-33.792;151.032;2024-01-07T05:50:21;100718.41;;;27.88;55.39
81162;BME280;70638;-33.792;151.032;2024-01-07T05:52:48;100714.14;;;27.92;54.84
81162;BME280;70638;-33.792;151.032;2024-01-07T05:55:23;100709.46;;;27.95;53.76
81162;BME280;70638;-33.792;151.032;2024-01-07T05:57:48;100703.17;;;28.05;55.12
81162;BME280;70638;-33.792;151.032;2024-01-07T06:00:20;100705.22;;;27.82;53.92
81162;BME280;70638;-33.792;151.032;2024-01-07T06:02:50;100709.00;;;27.62;55.81
81162;BME280;70638;-33.792;151.032;2024-01-07T06:05:21;100707.09;;;27.69;55.22
81162;BME280;70638;-33.792;151.032;2024-01-07T06:07:51;100707.37;;;27.65;54.85
81162;BME280;70638;-33.792;151.032;2024-01-07T06:10:22;100698.45;;;27.61;55.85
81162;BME280;70638;-33.792;151.032;2024-01-07T06:12:53;100697.56;;;27.49;56.04
81162;BME280;70638;-33.792;151.032;2024-01-07T06:15:23;100688.14;;;27.62;55.53
81162;BME280;70638;-33.792;151.032;2024-01-07T06:18:02;100677.22;;;27.76;56.10
81162;BME280;70638;-33.792;151.032;2024-01-07T06:20:24;100682.17;;;27.64;55.67
81162;BME280;70638;-33.792;151.032;2024-01-07T06:22:55;100683.31;;;27.60;55.89
81162;BME280;70638;-33.792;151.032;2024-01-07T06:25:28;100670.70;;;27.60;56.58
81162;BME280;70638;-33.792;151.032;2024-01-07T06:27:57;100675.39;;;27.50;57.33
81162;BME280;70638;-33.792;151.032;2024-01-07T06:30:27;100673.39;;;27.60;57.01
81162;BME280;70638;-33.792;151.032;2024-01-07T06:33:00;100680.52;;;27.65;57.09
81162;BME280;70638;-33.792;151.032;2024-01-07T06:35:28;100673.08;;;27.46;56.32
81162;BME280;70638;-33.792;151.032;2024-01-07T06:37:59;100680.62;;;27.51;57.50
81162;BME280;70638;-33.792;151.032;2024-01-07T06:40:29;100681.22;;;27.38;57.47
81162;BME280;70638;-33.792;151.032;2024-01-07T06:43:01;100681.18;;;27.30;58.24
81162;BME280;70638;-33.792;151.032;2024-01-07T06:45:30;100683.64;;;27.27;59.43
81162;BME280;70638;-33.792;151.032;2024-01-07T06:48:01;100686.89;;;27.20;57.45
81162;BME280;70638;-33.792;151.032;2024-01-07T06:50:32;100681.85;;;27.00;57.53
81162;BME280;70638;-33.792;151.032;2024-01-07T06:53:03;100695.20;;;26.78;57.84
81162;BME280;70638;-33.792;151.032;2024-01-07T06:55:33;100686.95;;;26.75;57.79
81162;BME280;70638;-33.792;151.032;2024-01-07T06:58:04;100692.50;;;26.63;56.81
81162;BME280;70638;-33.792;151.032;2024-01-07T07:00:34;100693.60;;;26.66;57.40
81162;BME280;70638;-33.792;151.032;2024-01-07T07:03:08;100700.84;;;26.86;57.85
81162;BME280;70638;-33.792;151.032;2024-01-07T07:05:35;100699.19;;;27.00;57.42
81162;BME280;70638;-33.792;151.032;2024-01-07T07:08:06;100707.09;;;27.01;57.31
81162;BME280;70638;-33.792;151.032;2024-01-07T07:10:37;100712.07;;;27.01;56.45
81162;BME280;70638;-33.792;151.032;2024-01-07T07:13:10;100722.58;;;26.84;57.08
81162;BME280;70638;-33.792;151.032;2024-01-07T07:15:39;100712.94;;;26.81;56.83
81162;BME280;70638;-33.792;151.032;2024-01-07T07:18:08;100716.50;;;26.73;57.65
81162;BME280;70638;-33.792;151.032;2024-01-07T07:20:39;100706.83;;;26.69;57.78
81162;BME280;70638;-33.792;151.032;2024-01-07T07:23:10;100708.02;;;26.67;57.01
81162;BME280;70638;-33.792;151.032;2024-01-07T07:25:41;100707.36;;;26.51;57.00
81162;BME280;70638;-33.792;151.032;2024-01-07T07:28:11;100705.92;;;26.44;58.15
81162;BME280;70638;-33.792;151.032;2024-01-07T07:30:42;100703.29;;;26.31;57.68
81162;BME280;70638;-33.792;151.032;2024-01-07T07:33:13;100703.86;;;26.10;58.05
81162;BME280;70638;-33.792;151.032;2024-01-07T07:35:44;100705.24;;;26.01;60.19
81162;BME280;70638;-33.792;151.032;2024-01-07T07:38:14;100696.70;;;25.91;59.57
81162;BME280;70638;-33.792;151.032;2024-01-07T07:40:45;100686.44;;;25.89;59.30
81162;BME280;70638;-33.792;151.032;2024-01-07T07:43:15;100684.62;;;25.87;59.46
81162;BME280;70638;-33.792;151.032;2024-01-07T07:45:46;100678.69;;;25.84;59.00
81162;BME280;70638;-33.792;151.032;2024-01-07T07:48:18;100674.08;;;25.87;60.53
81162;BME280;70638;-33.792;151.032;2024-01-07T07:50:54;100674.72;;;25.86;59.25
81162;BME280;70638;-33.792;151.032;2024-01-07T07:53:19;100664.18;;;25.82;58.93
81162;BME280;70638;-33.792;151.032;2024-01-07T07:55:48;100692.80;;;25.83;59.84
81162;BME280;70638;-33.792;151.032;2024-01-07T07:58:19;100695.21;;;25.77;60.23
81162;BME280;70638;-33.792;151.032;2024-01-07T08:00:50;100701.28;;;25.71;60.60
81162;BME280;70638;-33.792;151.032;2024-01-07T08:03:21;100706.16;;;25.63;61.17
81162;BME280;70638;-33.792;151.032;2024-01-07T08:05:54;100713.15;;;25.51;61.40
81162;BME280;70638;-33.792;151.032;2024-01-07T08:08:25;100719.11;;;25.44;61.60
81162;BME280;70638;-33.792;151.032;2024-01-07T08:10:57;100725.52;;;25.33;62.13
81162;BME280;70638;-33.792;151.032;2024-01-07T08:13:23;100723.11;;;25.23;62.84
81162;BME280;70638;-33.792;151.032;2024-01-07T08:15:57;100723.66;;;25.16;63.12
81162;BME280;70638;-33.792;151.032;2024-01-07T08:18:24;100723.00;;;25.08;63.50
81162;BME280;70638;-33.792;151.032;2024-01-07T08:20:55;100719.69;;;25.03;64.02
81162;BME280;70638;-33.792;151.032;2024-01-07T08:23:28;100718.09;;;24.97;65.57
81162;BME280;70638;-33.792;151.032;2024-01-07T08:25:57;100715.00;;;24.88;65.99
81162;BME280;70638;-33.792;151.032;2024-01-07T08:28:26;100717.42;;;24.84;66.49
81162;BME280;70638;-33.792;151.032;2024-01-07T08:31:07;100711.14;;;24.76;65.54
81162;BME280;70638;-33.792;151.032;2024-01-07T08:33:27;100710.06;;;24.70;66.57
81162;BME280;70638;-33.792;151.032;2024-01-07T08:35:57;100704.73;;;24.62;66.28
81162;BME280;70638;-33.792;151.032;2024-01-07T08:38:28;100698.20;;;24.54;66.26
81162;BME280;70638;-33.792;151.032;2024-01-07T08:40:59;100699.11;;;24.45;66.52
81162;BME280;70638;-33.792;151.032;2024-01-07T08:43:29;100710.19;;;24.39;67.80
81162;BME280;70638;-33.792;151.032;2024-01-07T08:46:00;100724.93;;;24.32;68.36
81162;BME280;70638;-33.792;151.032;2024-01-07T08:48:31;100715.77;;;24.28;68.17
81162;BME280;70638;-33.792;151.032;2024-01-07T08:51:01;100733.75;;;24.21;67.97
81162;BME280;70638;-33.792;151.032;2024-01-07T08:53:40;100730.79;;;24.15;69.20
81162;BME280;70638;-33.792;151.032;2024-01-07T08:56:03;100733.35;;;24.04;69.36
81162;BME280;70638;-33.792;151.032;2024-01-07T08:58:33;100730.20;;;24.00;70.44
81162;BME280;70638;-33.792;151.032;2024-01-07T09:01:05;100740.23;;;23.95;69.92
81162;BME280;70638;-33.792;151.032;2024-01-07T09:03:35;100745.34;;;23.86;69.47
81162;BME280;70638;-33.792;151.032;2024-01-07T09:06:08;100737.48;;;23.81;70.96
81162;BME280;70638;-33.792;151.032;2024-01-07T09:08:39;100739.33;;;23.74;70.09
81162;BME280;70638;-33.792;151.032;2024-01-07T09:11:12;100739.84;;;23.70;70.59
81162;BME280;70638;-33.792;151.032;2024-01-07T09:13:37;100738.75;;;23.63;70.75
81162;BME280;70638;-33.792;151.032;2024-01-07T09:16:14;100739.77;;;23.57;71.02
81162;BME280;70638;-33.792;151.032;2024-01-07T09:18:38;100739.82;;;23.56;71.96
81162;BME280;70638;-33.792;151.032;2024-01-07T09:21:13;100732.88;;;23.49;71.67
81162;BME280;70638;-33.792;151.032;2024-01-07T09:23:41;100736.97;;;23.47;71.41
81162;BME280;70638;-33.792;151.032;2024-01-07T09:26:12;100738.69;;;23.44;70.85
81162;BME280;70638;-33.792;151.032;2024-01-07T09:28:40;100743.66;;;23.42;71.20
81162;BME280;70638;-33.792;151.032;2024-01-07T09:31:16;100748.90;;;23.41;70.74
81162;BME280;70638;-33.792;151.032;2024-01-07T09:33:40;100749.40;;;23.39;71.55
81162;BME280;70638;-33.792;151.032;2024-01-07T09:36:15;100755.36;;;23.37;70.89
81162;BME280;70638;-33.792;151.032;2024-01-07T09:38:41;100759.01;;;23.35;71.07
81162;BME280;70638;-33.792;151.032;2024-01-07T09:41:12;100759.58;;;23.33;71.74
81162;BME280;70638;-33.792;151.032;2024-01-07T09:43:42;100769.88;;;23.27;72.36
81162;BME280;70638;-33.792;151.032;2024-01-07T09:46:14;100768.42;;;23.27;72.61
81162;BME280;70638;-33.792;151.032;2024-01-07T09:48:44;100771.20;;;23.22;72.22
81162;BME280;70638;-33.792;151.032;2024-01-07T09:51:16;100774.12;;;23.23;72.04
81162;BME280;70638;-33.792;151.032;2024-01-07T09:53:47;100778.33;;;23.19;72.68
81162;BME280;70638;-33.792;151.032;2024-01-07T09:56:34;100786.19;;;23.20;73.50
81162;BME280;70638;-33.792;151.032;2024-01-07T09:58:45;100785.54;;;23.16;73.31
81162;BME280;70638;-33.792;151.032;2024-01-07T10:01:18;100789.56;;;23.12;72.91
81162;BME280;70638;-33.792;151.032;2024-01-07T10:03:46;100790.20;;;23.18;73.62
81162;BME280;70638;-33.792;151.032;2024-01-07T10:06:20;100786.83;;;23.11;73.56
81162;BME280;70638;-33.792;151.032;2024-01-07T10:08:47;100788.11;;;23.12;73.69
81162;BME280;70638;-33.792;151.032;2024-01-07T10:11:24;100785.64;;;23.08;74.52
81162;BME280;70638;-33.792;151.032;2024-01-07T10:13:57;100784.65;;;23.07;73.73
81162;BME280;70638;-33.792;151.032;2024-01-07T10:16:23;100786.01;;;23.07;74.00
81162;BME280;70638;-33.792;151.032;2024-01-07T10:18:53;100780.00;;;23.04;74.28
81162;BME280;70638;-33.792;151.032;2024-01-07T10:21:20;100772.96;;;23.02;74.77
81162;BME280;70638;-33.792;151.032;2024-01-07T10:24:07;100766.58;;;22.99;74.87
81162;BME280;70638;-33.792;151.032;2024-01-07T10:26:24;100761.33;;;22.97;75.27
81162;BME280;70638;-33.792;151.032;2024-01-07T10:28:52;100752.81;;;22.96;75.26
81162;BME280;70638;-33.792;151.032;2024-01-07T10:31:23;100760.70;;;22.94;76.10
81162;BME280;70638;-33.792;151.032;2024-01-07T10:34:02;100762.05;;;22.90;75.60
81162;BME280;70638;-33.792;151.032;2024-01-07T10:36:37;100759.70;;;22.85;75.41
81162;BME280;70638;-33.792;151.032;2024-01-07T10:38:59;100762.02;;;22.92;76.16
81162;BME280;70638;-33.792;151.032;2024-01-07T10:41:25;100748.95;;;22.96;76.65
81162;BME280;70638;-33.792;151.032;2024-01-07T10:43:56;100750.27;;;22.89;75.75
81162;BME280;70638;-33.792;151.032;2024-01-07T10:46:30;100755.15;;;22.89;75.35
81162;BME280;70638;-33.792;151.032;2024-01-07T10:49:00;100758.70;;;22.91;77.13
81162;BME280;70638;-33.792;151.032;2024-01-07T10:51:33;100763.23;;;22.84;76.48
81162;BME280;70638;-33.792;151.032;2024-01-07T10:53:57;100768.16;;;22.86;76.38
81162;BME280;70638;-33.792;151.032;2024-01-07T10:56:45;100759.34;;;22.85;76.34
81162;BME280;70638;-33.792;151.032;2024-01-07T10:58:59;100765.09;;;22.85;76.18
81162;BME280;70638;-33.792;151.032;2024-01-07T11:01:29;100759.62;;;22.85;76.66
81162;BME280;70638;-33.792;151.032;2024-01-07T11:04:04;100757.62;;;22.86;76.16
81162;BME280;70638;-33.792;151.032;2024-01-07T11:06:40;100748.56;;;22.84;76.21
81162;BME280;70638;-33.792;151.032;2024-01-07T11:09:12;100753.69;;;22.86;76.18
81162;BME280;70638;-33.792;151.032;2024-01-07T11:11:37;100755.14;;;22.85;76.37
81162;BME280;70638;-33.792;151.032;2024-01-07T11:14:01;100758.69;;;22.81;76.10
81162;BME280;70638;-33.792;151.032;2024-01-07T11:16:57;100765.19;;;22.82;77.49
81162;BME280;70638;-33.792;151.032;2024-01-07T11:19:05;100772.20;;;22.75;77.79
81162;BME280;70638;-33.792;151.032;2024-01-07T11:21:32;100771.91;;;22.73;77.72
81162;BME280;70638;-33.792;151.032;2024-01-07T11:24:03;100773.89;;;22.73;77.73
81162;BME280;70638;-33.792;151.032;2024-01-07T11:26:34;100773.89;;;22.69;77.39
81162;BME280;70638;-33.792;151.032;2024-01-07T11:29:05;100777.91;;;22.67;78.10
81162;BME280;70638;-33.792;151.032;2024-01-07T11:31:44;100779.94;;;22.63;77.64
81162;BME280;70638;-33.792;151.032;2024-01-07T11:34:06;100776.81;;;22.58;78.19
81162;BME280;70638;-33.792;151.032;2024-01-07T11:36:45;100772.08;;;22.56;77.83
81162;BME280;70638;-33.792;151.032;2024-01-07T11:39:09;100781.30;;;22.64;79.17
81162;BME280;70638;-33.792;151.032;2024-01-07T11:41:40;100781.66;;;22.67;79.46
81162;BME280;70638;-33.792;151.032;2024-01-07T11:44:16;100782.97;;;22.58;79.12
81162;BME280;70638;-33.792;151.032;2024-01-07T11:46:41;100775.41;;;22.55;78.63
81162;BME280;70638;-33.792;151.032;2024-01-07T11:49:09;100773.00;;;22.49;78.55
81162;BME280;70638;-33.792;151.032;2024-01-07T11:51:40;100775.02;;;22.48;79.40
81162;BME280;70638;-33.792;151.032;2024-01-07T11:54:11;100775.05;;;22.42;78.96
81162;BME280;70638;-33.792;151.032;2024-01-07T11:56:46;100772.96;;;22.39;79.11
81162;BME280;70638;-33.792;151.032;2024-01-07T11:59:11;100774.27;;;22.31;80.01
81162;BME280;70638;-33.792;151.032;2024-01-07T12:01:41;100776.59;;;22.27;80.74
81162;BME280;70638;-33.792;151.032;2024-01-07T12:04:12;100775.12;;;22.28;80.55
81162;BME280;70638;-33.792;151.032;2024-01-07T12:06:43;100773.09;;;22.27;80.67
81162;BME280;70638;-33.792;151.032;2024-01-07T12:09:13;100775.79;;;22.21;80.60
81162;BME280;70638;-33.792;151.032;2024-01-07T12:11:44;100773.94;;;22.14;80.71
81162;BME280;70638;-33.792;151.032;2024-01-07T12:14:14;100778.55;;;22.14;79.98
81162;BME280;70638;-33.792;151.032;2024-01-07T12:16:45;100780.32;;;22.15;79.86
81162;BME280;70638;-33.792;151.032;2024-01-07T12:19:16;100773.01;;;22.09;81.76
81162;BME280;70638;-33.792;151.032;2024-01-07T12:21:47;100767.96;;;22.05;81.14
81162;BME280;70638;-33.792;151.032;2024-01-07T12:24:17;100765.80;;;22.02;82.13
81162;BME280;70638;-33.792;151.032;2024-01-07T12:26:50;100766.33;;;21.98;81.21
81162;BME280;70638;-33.792;151.032;2024-01-07T12:29:20;100761.59;;;21.94;81.57
81162;BME280;70638;-33.792;151.032;2024-01-07T12:31:51;100762.25;;;21.91;81.71
81162;BME280;70638;-33.792;151.032;2024-01-07T12:34:21;100761.45;;;21.89;81.90
81162;BME280;70638;-33.792;151.032;2024-01-07T12:36:50;100759.88;;;21.84;82.39
81162;BME280;70638;-33.792;151.032;2024-01-07T12:39:21;100758.34;;;21.86;82.43